- বাংলা English

MARITIME PORTS OF CHITTAGONG, COX’S BAZAR, MONGLA AND PAYRA HAVE BEEN ADVISED TO HOIST LOCAL CAUTIONARY SIGNAL NO. THREE (R) THREE.**  **  Phone: +880 29135742, 9123838, 9141437 | FAX: +880 29119230, 58152019   

TAF

TAF VGHS 190500Z 1906/2012 09008KT 3500 HZ SCT012 BKN100 TEMPO 1906/1909 10025KT 2000 RA/TSRA BKN008 FEW025CB OVC090 BECMG 1910/1912 11008KT 4000 HZ SCT015 BKN100 BECMG 1918/1920 09008KT 3500 HZ SCT012 BKN100 TEMPO 1921/2006 10025KT 2000 RA/TSRA BKN008 FEW025CB OVC090=


TAF VGEG 190500Z 1906/2012 09008KT 5000 –RA/HZ SCT015 BKN100 BECMG 14007KT 5000 HZ SCT017 SCT120 TEMPO 1923/1912 16015G25KT 2000 RA/TSRA SCT007 FEW028CB BKN090=

 

TAF VGSY 190400Z 1906/2012 03005KT 5000HZ SCT015 BKN100 BECMG 1918/1920 06004KT 4000HZ SCT015 BKN100 BECMG 1923/2001 04004KT 3500HZ SCT012 BKN100 TEMPO 1906/2012 31025G35KT 1500 RA/TSRA BKN006 FEW025CB OVC 080=